Time;durP1;ratioP1;P1;durP2;ratioP2;P2;SDS_P1;SDS_P2;PMS_P1;PMS_P2;Temp;Humidity;BMP_temperature;BMP_pressure;BME280_temperature;BME280_humidity;BME280_pressure;Samples;Min_cycle;Max_cycle;Signal;HPM_P1;HPM_P2
2021/08/25 00:00:24;;;;;;;5.13;3.80;;;11.80;99.90;;;;;;6247763;28;20196;-74
2021/08/25 00:03:27;;;;;;;4.00;3.60;;;11.80;99.90;;;;;;6231114;28;20250;-74
2021/08/25 00:06:30;;;;;;;5.30;3.60;;;11.70;99.90;;;;;;6248271;28;20232;-74
2021/08/25 00:09:42;;;;;;;5.57;4.07;;;11.70;99.90;;;;;;6247329;28;20224;-74
2021/08/25 00:12:44;;;;;;;4.60;4.20;;;11.70;99.90;;;;;;6230570;28;20746;-74
2021/08/25 00:15:47;;;;;;;6.07;4.27;;;11.60;99.90;;;;;;6230350;28;20190;-75
2021/08/25 00:18:49;;;;;;;5.70;3.90;;;11.60;99.90;;;;;;6244988;28;20203;-75
2021/08/25 00:21:54;;;;;;;4.83;4.00;;;11.50;99.90;;;;;;6246931;28;20558;-74
2021/08/25 00:24:56;;;;;;;7.10;4.03;;;11.50;99.90;;;;;;6248900;28;20224;-74
2021/08/25 00:28:01;;;;;;;4.37;3.90;;;11.50;99.90;;;;;;6247535;28;20185;-74
2021/08/25 00:31:04;;;;;;;4.97;3.70;;;11.40;99.90;;;;;;6236364;28;20276;-73
2021/08/25 00:34:07;;;;;;;4.53;3.67;;;11.40;99.90;;;;;;6230038;28;20574;-73
2021/08/25 00:37:10;;;;;;;5.37;3.70;;;11.40;99.90;;;;;;6245939;28;20325;-73
2021/08/25 00:40:13;;;;;;;4.97;3.60;;;11.30;99.90;;;;;;6247516;28;20185;-74
2021/08/25 00:43:16;;;;;;;4.13;3.70;;;11.30;99.90;;;;;;6246161;28;20184;-73
2021/08/25 00:46:19;;;;;;;6.77;3.70;;;11.30;99.90;;;;;;6246087;28;20212;-74
2021/08/25 00:49:21;;;;;;;6.13;3.57;;;11.20;99.90;;;;;;6229949;28;20219;-74
2021/08/25 00:52:24;;;;;;;4.07;3.63;;;11.20;99.90;;;;;;6246945;28;20216;-73
2021/08/25 00:55:27;;;;;;;4.53;3.80;;;11.20;99.90;;;;;;6245867;28;20204;-74
2021/08/25 00:58:29;;;;;;;5.53;3.60;;;11.20;99.90;;;;;;6246226;28;20243;-73
2021/08/25 01:01:59;;;;;;;5.90;4.10;;;11.20;99.90;;;;;;6246938;28;20184;-74
2021/08/25 01:05:02;;;;;;;4.83;3.70;;;11.10;99.90;;;;;;6245649;28;20219;-74
2021/08/25 01:08:07;;;;;;;4.23;3.83;;;11.10;99.90;;;;;;6247067;28;20188;-74
2021/08/25 01:11:09;;;;;;;5.93;4.13;;;11.00;99.90;;;;;;6262240;28;20324;-74
2021/08/25 01:14:11;;;;;;;6.30;3.90;;;11.00;99.90;;;;;;6261496;28;20345;-74
2021/08/25 01:17:20;;;;;;;6.83;4.40;;;11.00;99.90;;;;;;6245473;28;20505;-73
2021/08/25 01:20:25;;;;;;;8.50;3.90;;;10.90;99.90;;;;;;6261733;28;20204;-73
2021/08/25 01:23:29;;;;;;;4.33;3.93;;;10.90;99.90;;;;;;6246842;28;20707;-73
2021/08/25 01:26:32;;;;;;;5.37;4.17;;;10.90;99.90;;;;;;6245263;28;20296;-74
2021/08/25 01:29:34;;;;;;;4.63;3.90;;;10.90;99.90;;;;;;6236786;28;20339;-74
2021/08/25 01:32:39;;;;;;;4.70;4.13;;;10.90;99.90;;;;;;6243398;28;20218;-74
2021/08/25 01:35:42;;;;;;;4.27;3.87;;;10.80;99.90;;;;;;6223761;28;20188;-75
2021/08/25 01:38:50;;;;;;;5.70;3.97;;;10.90;99.90;;;;;;6245407;28;20212;-75
2021/08/25 01:41:53;;;;;;;5.73;4.17;;;10.80;99.90;;;;;;6246158;28;20270;-74
2021/08/25 01:44:55;;;;;;;4.30;3.67;;;10.80;99.90;;;;;;6245466;28;20278;-76
2021/08/25 01:47:57;;;;;;;6.33;4.17;;;10.80;99.90;;;;;;6246410;28;20199;-73
2021/08/25 01:51:00;;;;;;;4.50;4.10;;;10.80;99.90;;;;;;6244756;28;20203;-74
2021/08/25 01:54:03;;;;;;;11.40;4.27;;;10.70;99.90;;;;;;6245040;28;20192;-76
2021/08/25 01:57:08;;;;;;;4.70;3.87;;;10.70;99.90;;;;;;6244563;28;20199;-75
2021/08/25 02:00:11;;;;;;;5.13;4.30;;;10.70;99.90;;;;;;6246247;28;20721;-74
2021/08/25 02:03:14;;;;;;;4.37;3.77;;;10.70;99.90;;;;;;6244555;28;20199;-74
2021/08/25 02:06:16;;;;;;;3.70;3.40;;;10.70;99.90;;;;;;6228153;28;20235;-73
2021/08/25 02:09:19;;;;;;;4.70;3.87;;;10.70;99.90;;;;;;6228430;28;20199;-73
2021/08/25 02:12:21;;;;;;;3.87;3.47;;;10.70;99.90;;;;;;6231631;28;20240;-74
2021/08/25 02:15:23;;;;;;;3.80;3.40;;;10.60;99.90;;;;;;6249600;28;20668;-74
2021/08/25 02:18:25;;;;;;;3.57;3.27;;;10.60;99.90;;;;;;6250689;28;20246;-74
2021/08/25 02:21:29;;;;;;;5.20;4.07;;;10.60;99.90;;;;;;6248914;28;20208;-73
2021/08/25 02:24:33;;;;;;;6.30;3.63;;;10.60;99.90;;;;;;6250379;28;20195;-74
2021/08/25 02:27:35;;;;;;;4.83;3.57;;;10.60;99.90;;;;;;6265275;28;20208;-74
2021/08/25 02:30:37;;;;;;;5.70;3.57;;;10.60;99.90;;;;;;6232570;28;20677;-74
2021/08/25 02:33:41;;;;;;;5.67;4.07;;;10.60;99.90;;;;;;6250019;28;20211;-74
2021/08/25 02:36:43;;;;;;;5.70;3.70;;;10.50;99.90;;;;;;6250114;28;20204;-73
2021/08/25 02:39:45;;;;;;;5.13;3.70;;;10.50;99.90;;;;;;6250287;28;20192;-73
2021/08/25 02:42:47;;;;;;;8.10;3.67;;;10.50;99.90;;;;;;6265266;28;20222;-74
2021/08/25 02:45:51;;;;;;;7.07;3.87;;;10.50;99.90;;;;;;6248644;28;20217;-74
2021/08/25 02:48:53;;;;;;;5.93;3.90;;;10.50;99.90;;;;;;6249957;28;20189;-73
2021/08/25 02:51:55;;;;;;;4.43;3.57;;;10.40;99.90;;;;;;6250031;28;20206;-75
2021/08/25 02:54:57;;;;;;;4.00;3.60;;;10.40;99.90;;;;;;6232229;28;20303;-75
2021/08/25 02:58:00;;;;;;;5.97;3.80;;;10.30;99.90;;;;;;6248399;28;20693;-75
2021/08/25 03:01:02;;;;;;;6.10;3.97;;;10.30;99.90;;;;;;6249980;28;20544;-73
2021/08/25 03:04:05;;;;;;;5.40;3.90;;;10.30;99.90;;;;;;6248543;28;20216;-74
2021/08/25 03:07:08;;;;;;;6.70;4.20;;;10.20;99.90;;;;;;6249397;28;20295;-74
2021/08/25 03:10:10;;;;;;;10.77;4.67;;;10.20;99.90;;;;;;6248101;28;20261;-74
2021/08/25 03:13:13;;;;;;;6.00;4.63;;;10.20;99.90;;;;;;6247800;28;20233;-73
2021/08/25 03:16:15;;;;;;;7.13;4.43;;;10.10;99.90;;;;;;6231565;28;20206;-73
2021/08/25 03:19:17;;;;;;;5.37;3.83;;;10.20;99.90;;;;;;6249094;28;20664;-75
2021/08/25 03:22:20;;;;;;;6.23;4.30;;;10.10;99.90;;;;;;6248015;28;20188;-73
2021/08/25 03:25:22;;;;;;;6.23;4.00;;;10.10;99.90;;;;;;6248619;28;20565;-74
2021/08/25 03:28:24;;;;;;;6.53;3.87;;;10.20;99.90;;;;;;6264196;28;20307;-73
2021/08/25 03:31:27;;;;;;;5.53;4.13;;;10.20;99.90;;;;;;6249256;28;20270;-73
2021/08/25 03:34:29;;;;;;;6.43;3.73;;;10.10;99.90;;;;;;6255030;28;20200;-72
2021/08/25 03:37:31;;;;;;;7.73;4.13;;;10.20;99.90;;;;;;6247758;28;20194;-73
2021/08/25 03:40:33;;;;;;;7.33;4.00;;;10.10;99.90;;;;;;6247480;28;20211;-72
2021/08/25 03:43:36;;;;;;;7.00;4.03;;;10.10;99.90;;;;;;6248668;28;20194;-73
2021/08/25 03:46:38;;;;;;;5.80;3.97;;;10.10;99.90;;;;;;6247139;28;20234;-74
2021/08/25 03:49:42;;;;;;;7.93;3.90;;;10.00;99.90;;;;;;6247099;28;20201;-75
2021/08/25 03:52:44;;;;;;;4.67;4.17;;;10.10;99.90;;;;;;6247186;28;20734;-74
2021/08/25 03:55:47;;;;;;;6.80;4.23;;;10.00;99.90;;;;;;6246700;28;20294;-74
2021/08/25 03:58:49;;;;;;;7.67;4.13;;;10.10;99.90;;;;;;6230777;28;20203;-74
2021/08/25 04:01:52;;;;;;;7.70;3.83;;;10.00;99.90;;;;;;6248330;28;20199;-73
2021/08/25 04:04:54;;;;;;;4.53;3.53;;;10.00;99.90;;;;;;6247046;28;20207;-73
2021/08/25 04:07:57;;;;;;;4.53;3.63;;;10.00;99.90;;;;;;6230312;28;20223;-74
2021/08/25 04:11:00;;;;;;;5.63;3.47;;;10.00;99.90;;;;;;6230463;28;20191;-73
2021/08/25 04:14:02;;;;;;;6.37;4.07;;;10.00;99.90;;;;;;6246336;28;20717;-73
2021/08/25 04:17:05;;;;;;;4.97;3.77;;;10.00;99.90;;;;;;6263262;28;20329;-75
2021/08/25 04:20:07;;;;;;;4.23;3.70;;;10.00;99.90;;;;;;6247849;28;20240;-74
2021/08/25 04:23:10;;;;;;;7.03;3.90;;;10.10;99.90;;;;;;6245842;28;20387;-75
2021/08/25 04:26:12;;;;;;;6.47;4.00;;;10.20;99.90;;;;;;6246950;28;20239;-74
2021/08/25 04:29:14;;;;;;;5.43;3.47;;;10.30;99.90;;;;;;6245015;28;20727;-75
2021/08/25 04:32:16;;;;;;;7.37;3.77;;;10.30;99.90;;;;;;6229288;28;20202;-74
2021/08/25 04:35:19;;;;;;;5.50;3.83;;;10.40;99.90;;;;;;6262536;28;20202;-74
2021/08/25 04:38:21;;;;;;;4.10;3.53;;;10.40;99.90;;;;;;6246182;28;20278;-74
2021/08/25 04:41:24;;;;;;;8.90;3.37;;;10.40;99.90;;;;;;6243980;28;20207;-75
2021/08/25 04:44:26;;;;;;;4.73;3.40;;;10.50;99.90;;;;;;6260856;28;20290;-74
2021/08/25 04:47:28;;;;;;;5.47;3.87;;;10.50;99.90;;;;;;6245703;28;20582;-75
2021/08/25 04:50:31;;;;;;;4.77;3.43;;;10.60;99.90;;;;;;6244731;28;20253;-74
2021/08/25 04:53:33;;;;;;;3.70;3.30;;;10.70;99.90;;;;;;6245287;28;20271;-74
2021/08/25 04:56:35;;;;;;;6.43;3.70;;;10.70;99.90;;;;;;6246262;28;20273;-75
2021/08/25 04:59:38;;;;;;;6.30;3.50;;;10.80;99.90;;;;;;6246799;28;20257;-74
2021/08/25 05:02:40;;;;;;;3.60;3.30;;;10.90;99.90;;;;;;6246501;28;20620;-73
2021/08/25 05:05:42;;;;;;;6.17;3.13;;;10.90;99.90;;;;;;6244712;28;20504;-74
2021/08/25 05:08:45;;;;;;;4.83;3.73;;;10.90;99.90;;;;;;6222276;28;20591;-77
2021/08/25 05:11:47;;;;;;;4.70;3.43;;;10.90;99.90;;;;;;6243401;28;20264;-73
2021/08/25 05:14:49;;;;;;;4.53;3.20;;;10.90;99.90;;;;;;6244836;28;20270;-73
2021/08/25 05:17:52;;;;;;;5.93;3.20;;;10.90;99.90;;;;;;6244515;28;20191;-74
2021/08/25 05:20:54;;;;;;;4.83;3.43;;;11.00;99.90;;;;;;6244968;28;20583;-73
2021/08/25 05:23:56;;;;;;;4.30;3.30;;;11.10;99.90;;;;;;6246069;28;20200;-75
2021/08/25 05:26:59;;;;;;;4.37;3.17;;;11.10;99.90;;;;;;6244170;28;20350;-75
2021/08/25 05:30:03;;;;;;;3.47;3.17;;;11.30;99.90;;;;;;6244444;28;20286;-75
2021/08/25 05:33:05;;;;;;;6.17;3.30;;;11.40;99.90;;;;;;6261081;28;20203;-74
2021/08/25 05:36:07;;;;;;;3.97;2.63;;;11.60;99.90;;;;;;6228108;28;20207;-75
2021/08/25 05:39:11;;;;;;;4.00;3.10;;;11.70;99.90;;;;;;6244090;28;20199;-74
2021/08/25 05:42:13;;;;;;;4.97;3.13;;;11.80;99.90;;;;;;6245888;28;20606;-74
2021/08/25 05:45:15;;;;;;;4.80;3.07;;;11.90;99.90;;;;;;6246036;28;20335;-74
2021/08/25 05:48:18;;;;;;;6.03;3.03;;;12.00;99.90;;;;;;6250994;28;20227;-75
2021/08/25 05:51:20;;;;;;;5.43;3.20;;;12.10;99.90;;;;;;6236650;28;20197;-75
2021/08/25 05:54:23;;;;;;;5.73;3.03;;;12.20;99.90;;;;;;6253522;28;20188;-74
2021/08/25 05:57:25;;;;;;;3.53;2.97;;;12.30;99.90;;;;;;6253528;28;20201;-74
2021/08/25 06:00:27;;;;;;;4.43;2.97;;;12.30;99.90;;;;;;6252334;28;20196;-74
2021/08/25 06:03:30;;;;;;;6.13;3.53;;;12.40;99.90;;;;;;6251413;28;20213;-76
2021/08/25 06:06:34;;;;;;;5.90;3.70;;;12.50;99.90;;;;;;6252241;28;20216;-73
2021/08/25 06:09:37;;;;;;;4.33;3.10;;;12.60;99.90;;;;;;6252529;28;20234;-74
2021/08/25 06:12:39;;;;;;;5.03;2.87;;;12.70;99.90;;;;;;6253286;28;20563;-73
2021/08/25 06:15:41;;;;;;;5.57;3.50;;;12.80;99.90;;;;;;6235481;28;20690;-73
2021/08/25 06:18:44;;;;;;;6.00;3.53;;;12.90;99.90;;;;;;6252657;28;20272;-74
2021/08/25 06:21:47;;;;;;;6.10;3.30;;;12.90;99.90;;;;;;6236304;28;20186;-72
2021/08/25 06:24:49;;;;;;;5.27;3.30;;;13.10;99.90;;;;;;6236013;28;20224;-74
2021/08/25 06:27:52;;;;;;;4.20;2.77;;;13.20;99.90;;;;;;6252201;28;20222;-74
2021/08/25 06:30:54;;;;;;;5.43;2.90;;;13.30;99.90;;;;;;6252068;28;20198;-72
2021/08/25 06:33:57;;;;;;;4.70;3.17;;;13.40;99.90;;;;;;6252634;28;20209;-73
2021/08/25 06:36:59;;;;;;;4.33;2.80;;;13.60;99.90;;;;;;6253542;28;20547;-72
2021/08/25 06:40:01;;;;;;;4.57;3.17;;;13.70;99.90;;;;;;6251629;28;20207;-72
2021/08/25 06:43:03;;;;;;;5.40;3.57;;;13.70;99.90;;;;;;6244252;28;20196;-73
2021/08/25 06:46:06;;;;;;;4.10;3.30;;;13.80;99.90;;;;;;6232347;28;20376;-74
2021/08/25 06:49:08;;;;;;;3.53;2.70;;;13.80;99.90;;;;;;6236104;28;20199;-73
2021/08/25 06:52:10;;;;;;;7.77;3.60;;;13.80;99.90;;;;;;6253092;28;20562;-74
2021/08/25 06:55:13;;;;;;;4.70;3.10;;;13.70;99.90;;;;;;6252750;28;20226;-73
2021/08/25 06:58:15;;;;;;;8.20;2.90;;;13.60;99.90;;;;;;6265220;28;20229;-74
2021/08/25 07:01:17;;;;;;;7.47;3.13;;;13.60;99.90;;;;;;6249187;28;20198;-73
2021/08/25 07:04:20;;;;;;;7.00;3.33;;;13.70;99.90;;;;;;6248161;28;20191;-73
2021/08/25 07:07:22;;;;;;;5.47;2.83;;;13.60;99.90;;;;;;6248400;28;20250;-74
2021/08/25 07:10:25;;;;;;;6.13;3.30;;;13.70;99.90;;;;;;6247412;28;20596;-73
2021/08/25 07:13:27;;;;;;;5.97;3.43;;;13.80;99.90;;;;;;6247313;28;20313;-73
2021/08/25 07:16:34;;;;;;;5.77;3.80;;;13.90;99.90;;;;;;6246827;28;20208;-75
2021/08/25 07:19:36;;;;;;;6.27;3.50;;;14.10;99.90;;;;;;6223227;28;20678;-73
2021/08/25 07:22:39;;;;;;;5.27;3.23;;;14.40;99.90;;;;;;6245223;28;20195;-75
2021/08/25 07:25:42;;;;;;;6.10;3.50;;;14.60;99.90;;;;;;6247355;28;20228;-74
2021/08/25 07:28:45;;;;;;;4.17;2.90;;;14.80;99.90;;;;;;6230635;28;20250;-74
2021/08/25 07:31:48;;;;;;;7.10;3.77;;;15.00;99.90;;;;;;6248109;28;20329;-74
2021/08/25 07:34:51;;;;;;;7.70;3.60;;;15.20;99.90;;;;;;6246370;28;20204;-75
2021/08/25 07:37:53;;;;;;;5.43;3.60;;;15.40;99.90;;;;;;6246127;28;20192;-73
2021/08/25 07:40:56;;;;;;;5.87;3.80;;;15.70;99.90;;;;;;6230813;28;20199;-74
2021/08/25 07:43:58;;;;;;;4.33;3.43;;;15.80;99.90;;;;;;6230773;28;20255;-75
2021/08/25 07:47:01;;;;;;;7.57;3.67;;;15.90;99.90;;;;;;6246096;28;20223;-74
2021/08/25 07:50:03;;;;;;;5.57;2.63;;;16.10;99.90;;;;;;6246702;28;20202;-74
2021/08/25 07:53:06;;;;;;;5.40;3.23;;;16.30;99.90;;;;;;6247766;28;20662;-74
2021/08/25 07:56:08;;;;;;;6.43;3.70;;;16.50;99.90;;;;;;6246052;28;20206;-73
2021/08/25 07:59:11;;;;;;;5.00;3.40;;;16.50;99.90;;;;;;6229720;28;20196;-74
2021/08/25 08:02:13;;;;;;;5.13;3.53;;;16.60;99.90;;;;;;6247512;28;20564;-74
2021/08/25 08:05:16;;;;;;;4.80;3.47;;;16.90;99.90;;;;;;6247310;28;20745;-74
2021/08/25 08:08:18;;;;;;;4.87;3.50;;;17.30;99.90;;;;;;6246063;28;20317;-74
2021/08/25 08:11:21;;;;;;;3.83;2.67;;;17.30;99.90;;;;;;6262511;28;20564;-74
2021/08/25 08:14:23;;;;;;;7.00;3.57;;;17.20;99.90;;;;;;6244552;28;20679;-75
2021/08/25 08:17:26;;;;;;;4.07;3.30;;;16.90;99.90;;;;;;6244864;28;20207;-74
2021/08/25 08:20:28;;;;;;;6.93;3.67;;;16.90;99.90;;;;;;6245061;28;20597;-74
2021/08/25 08:23:31;;;;;;;4.67;3.30;;;17.00;99.90;;;;;;6245512;28;20210;-74
2021/08/25 08:26:33;;;;;;;4.20;3.00;;;17.50;99.90;;;;;;6246853;28;20212;-73
2021/08/25 08:29:36;;;;;;;3.73;2.87;;;18.00;99.90;;;;;;6228604;28;20274;-75
2021/08/25 08:32:39;;;;;;;5.87;3.60;;;18.40;99.90;;;;;;6244534;28;20225;-74
2021/08/25 08:35:41;;;;;;;7.13;3.10;;;18.70;99.90;;;;;;6245100;28;20283;-74
2021/08/25 08:38:43;;;;;;;6.83;3.57;;;18.70;99.90;;;;;;6244808;28;20199;-74
2021/08/25 08:41:46;;;;;;;4.97;3.17;;;18.50;99.90;;;;;;6245433;28;20222;-74
2021/08/25 08:44:48;;;;;;;5.07;3.00;;;18.40;99.90;;;;;;6236999;28;20212;-75
2021/08/25 08:47:51;;;;;;;4.73;3.10;;;18.30;99.90;;;;;;6236752;28;20571;-74
2021/08/25 08:50:54;;;;;;;5.07;3.30;;;18.10;99.90;;;;;;6246330;28;20196;-74
2021/08/25 08:53:56;;;;;;;5.80;2.97;;;18.10;99.90;;;;;;6229041;28;20283;-74
2021/08/25 08:57:03;;;;;;;7.00;3.60;;;18.20;99.90;;;;;;6260619;28;20203;-74
2021/08/25 09:00:06;;;;;;;6.33;3.13;;;18.30;99.90;;;;;;6245543;28;20195;-75
2021/08/25 09:03:26;;;;;;;5.10;3.40;;;18.10;99.90;;;;;;6245726;28;20196;-74
2021/08/25 09:06:45;;;;;;;5.33;3.50;;;18.40;99.90;;;;;;6221340;28;20192;-74
2021/08/25 09:09:56;;;;;;;6.00;3.80;;;18.70;99.50;;;;;;6220544;28;20201;-74
2021/08/25 09:13:10;;;;;;;6.77;3.70;;;18.80;96.40;;;;;;6245612;28;20232;-75
2021/08/25 09:16:25;;;;;;;5.13;3.60;;;18.50;96.40;;;;;;6261111;28;20199;-75
2021/08/25 09:19:34;;;;;;;5.50;3.57;;;18.40;97.30;;;;;;6244246;28;20204;-74
2021/08/25 09:22:37;;;;;;;6.23;3.70;;;18.80;97.20;;;;;;6244500;28;20195;-73
2021/08/25 09:25:39;;;;;;;4.60;3.50;;;19.40;96.00;;;;;;6245622;28;20219;-74
2021/08/25 09:28:42;;;;;;;8.23;4.97;;;20.10;91.60;;;;;;6244357;28;20204;-74
2021/08/25 09:31:49;;;;;;;6.23;4.00;;;19.90;91.70;;;;;;6236341;28;20192;-74
2021/08/25 09:34:57;;;;;;;5.73;3.93;;;19.60;92.60;;;;;;6255115;28;20192;-74
2021/08/25 09:38:02;;;;;;;5.33;3.60;;;19.30;92.60;;;;;;6227005;28;20235;-75
2021/08/25 09:41:07;;;;;;;7.53;4.23;;;19.10;93.30;;;;;;6227708;28;20719;-74
2021/08/25 09:44:15;;;;;;;5.17;3.77;;;19.00;91.80;;;;;;6234485;28;20201;-74
2021/08/25 09:47:49;;;;;;;5.20;3.87;;;18.90;92.60;;;;;;6220420;28;20304;-74
2021/08/25 09:50:57;;;;;;;7.10;3.97;;;18.80;94.50;;;;;;6244200;28;20231;-74
2021/08/25 09:54:08;;;;;;;6.83;4.10;;;19.30;93.80;;;;;;6244200;28;20793;-74
2021/08/25 09:57:11;;;;;;;5.90;3.80;;;19.90;90.70;;;;;;6227589;28;20343;-74
2021/08/25 10:00:13;;;;;;;5.47;3.60;;;20.40;89.20;;;;;;6260612;28;20264;-74
2021/08/25 10:03:16;;;;;;;7.20;4.53;;;20.60;90.30;;;;;;6243833;28;20208;-74
2021/08/25 10:06:21;;;;;;;5.97;4.07;;;20.20;87.10;;;;;;6243464;28;20196;-74
2021/08/25 10:09:24;;;;;;;4.50;3.50;;;19.50;88.50;;;;;;6245363;28;20208;-74
2021/08/25 10:12:26;;;;;;;6.33;4.17;;;19.00;90.10;;;;;;6244800;28;20249;-74
2021/08/25 10:15:33;;;;;;;5.93;3.77;;;18.80;91.20;;;;;;6245286;28;20770;-74
2021/08/25 10:18:39;;;;;;;5.40;3.40;;;18.60;90.60;;;;;;6219604;28;20181;-74
2021/08/25 10:21:42;;;;;;;6.20;4.20;;;19.10;94.00;;;;;;6241155;28;20206;-74
2021/08/25 10:24:53;;;;;;;5.93;3.70;;;19.70;88.80;;;;;;6245474;28;20271;-74
2021/08/25 10:28:07;;;;;;;5.47;3.67;;;20.10;85.80;;;;;;6244462;28;20599;-75
2021/08/25 10:31:09;;;;;;;5.43;3.80;;;20.00;86.10;;;;;;6244220;28;20193;-74
2021/08/25 10:34:17;;;;;;;6.03;3.70;;;19.70;89.60;;;;;;6249287;28;20212;-73
2021/08/25 10:37:27;;;;;;;6.57;3.93;;;19.60;90.30;;;;;;6249128;28;20188;-73
2021/08/25 10:40:32;;;;;;;6.47;3.83;;;19.50;91.20;;;;;;6248096;28;20656;-74
2021/08/25 10:43:39;;;;;;;4.80;3.50;;;19.50;90.60;;;;;;6231604;28;20200;-74
2021/08/25 10:46:50;;;;;;;4.60;3.47;;;19.50;90.80;;;;;;6248167;28;20271;-74
2021/08/25 10:50:09;;;;;;;5.43;3.50;;;19.50;90.80;;;;;;6248981;28;20176;-74
2021/08/25 10:53:30;;;;;;;6.23;3.73;;;19.50;91.30;;;;;;6247900;28;20696;-74
2021/08/25 10:56:45;;;;;;;5.07;4.00;;;20.10;90.70;;;;;;6223114;28;20562;-74
2021/08/25 10:59:48;;;;;;;4.97;3.60;;;20.70;89.40;;;;;;6245998;28;20180;-73
2021/08/25 11:02:50;;;;;;;6.60;3.90;;;21.10;86.50;;;;;;6247581;28;20270;-73
2021/08/25 11:05:52;;;;;;;5.33;3.40;;;21.10;82.80;;;;;;6230632;28;20208;-75
2021/08/25 11:09:13;;;;;;;8.57;4.07;;;21.10;83.20;;;;;;6248975;28;20212;-74
2021/08/25 11:12:18;;;;;;;8.20;4.40;;;21.20;81.00;;;;;;6248336;28;20270;-74
2021/08/25 11:15:31;;;;;;;6.07;3.83;;;21.00;83.20;;;;;;6249010;28;20307;-73
2021/08/25 11:18:36;;;;;;;5.17;3.90;;;20.80;83.40;;;;;;6248574;28;20192;-73
2021/08/25 11:21:40;;;;;;;6.43;3.80;;;20.60;84.20;;;;;;6247964;28;20691;-74
2021/08/25 11:24:46;;;;;;;5.53;3.50;;;20.40;83.60;;;;;;6246946;28;20649;-74
2021/08/25 11:27:50;;;;;;;5.60;3.83;;;20.70;85.70;;;;;;6247229;28;20212;-73
2021/08/25 11:30:53;;;;;;;7.00;3.90;;;21.30;84.60;;;;;;6248791;28;20200;-73
2021/08/25 11:33:55;;;;;;;5.53;3.83;;;21.70;81.10;;;;;;6246891;28;20225;-73
2021/08/25 11:37:03;;;;;;;7.07;4.00;;;22.10;78.70;;;;;;6247756;28;20667;-73
2021/08/25 11:40:06;;;;;;;8.03;4.30;;;22.50;79.20;;;;;;6246578;28;20188;-75
2021/08/25 11:43:15;;;;;;;6.17;4.17;;;23.00;77.90;;;;;;6262156;28;20196;-75
2021/08/25 11:46:24;;;;;;;6.53;4.00;;;23.40;74.30;;;;;;6248065;28;20215;-73
2021/08/25 11:49:27;;;;;;;4.93;3.70;;;23.80;71.40;;;;;;6246582;28;20585;-73
2021/08/25 11:52:34;;;;;;;6.03;4.10;;;23.80;70.80;;;;;;6229990;28;20193;-74
2021/08/25 11:55:38;;;;;;;6.73;4.23;;;23.60;67.70;;;;;;6246535;28;20196;-74
2021/08/25 11:58:42;;;;;;;5.83;4.00;;;23.30;68.60;;;;;;6247107;28;20220;-74
2021/08/25 12:01:44;;;;;;;5.27;3.93;;;22.80;68.40;;;;;;6247974;28;20668;-73
2021/08/25 12:04:47;;;;;;;7.33;4.70;;;22.60;70.40;;;;;;6247402;28;20189;-74
2021/08/25 12:08:09;;;;;;;6.13;4.00;;;22.60;70.90;;;;;;6246061;28;20262;-74
2021/08/25 12:11:14;;;;;;;5.30;3.83;;;22.40;73.70;;;;;;6247438;28;20230;-74
2021/08/25 12:14:16;;;;;;;5.80;4.10;;;22.70;67.60;;;;;;6245783;28;20224;-74
2021/08/25 12:17:19;;;;;;;6.33;4.07;;;22.80;66.00;;;;;;6245618;28;20223;-74
2021/08/25 12:20:21;;;;;;;6.53;4.47;;;23.10;65.50;;;;;;6246825;28;20192;-74
2021/08/25 12:23:26;;;;;;;6.33;4.50;;;23.10;64.20;;;;;;6246252;28;20279;-74
2021/08/25 12:26:30;;;;;;;6.30;3.93;;;22.90;66.10;;;;;;6245726;28;20230;-73
2021/08/25 12:29:32;;;;;;;6.03;4.30;;;22.70;68.50;;;;;;6245472;28;20212;-74
2021/08/25 12:32:43;;;;;;;5.17;4.20;;;23.00;65.70;;;;;;6245606;28;20188;-75
2021/08/25 12:35:45;;;;;;;5.73;4.50;;;23.50;64.90;;;;;;6246286;28;20269;-74
2021/08/25 12:38:49;;;;;;;6.90;4.23;;;24.20;62.30;;;;;;6245354;28;20203;-74
2021/08/25 12:41:51;;;;;;;6.30;3.77;;;24.80;61.80;;;;;;6244883;28;20271;-74
2021/08/25 12:44:54;;;;;;;6.53;4.50;;;25.00;59.10;;;;;;6245110;28;20682;-74
2021/08/25 12:47:56;;;;;;;5.17;4.03;;;25.00;58.20;;;;;;6246016;28;20214;-74
2021/08/25 12:50:58;;;;;;;6.80;4.30;;;25.00;57.20;;;;;;6244200;28;20188;-74
2021/08/25 12:54:01;;;;;;;6.17;3.77;;;24.60;56.80;;;;;;6245187;28;20188;-74
2021/08/25 12:57:03;;;;;;;6.77;4.70;;;24.50;58.50;;;;;;6245097;28;20214;-74
2021/08/25 13:00:09;;;;;;;5.67;4.30;;;24.10;58.10;;;;;;6244295;28;20348;-77
2021/08/25 13:03:11;;;;;;;4.73;4.13;;;23.90;59.00;;;;;;6227659;28;20197;-73
2021/08/25 13:06:14;;;;;;;5.37;4.10;;;23.90;60.10;;;;;;6236438;28;20299;-73
2021/08/25 13:09:16;;;;;;;7.23;4.23;;;23.90;60.20;;;;;;6229973;28;20212;-73
2021/08/25 13:12:18;;;;;;;4.60;3.83;;;23.70;59.70;;;;;;6244339;28;20289;-73
2021/08/25 13:15:21;;;;;;;4.23;3.57;;;23.30;59.70;;;;;;6244275;28;20210;-73
2021/08/25 13:18:23;;;;;;;6.87;4.27;;;22.90;63.20;;;;;;6246196;28;20198;-74
2021/08/25 13:21:25;;;;;;;5.37;4.10;;;23.10;66.40;;;;;;6245987;28;20231;-73
2021/08/25 13:24:28;;;;;;;5.03;3.83;;;23.80;63.30;;;;;;6244876;28;20195;-73
2021/08/25 13:27:30;;;;;;;5.70;3.80;;;24.70;58.50;;;;;;6227605;28;20283;-73
2021/08/25 13:30:32;;;;;;;6.30;4.17;;;25.40;57.50;;;;;;6245519;28;20216;-73
2021/08/25 13:33:35;;;;;;;7.40;4.20;;;25.70;55.50;;;;;;6244244;28;20342;-73
2021/08/25 13:36:37;;;;;;;6.87;4.23;;;24.90;55.30;;;;;;6245458;28;20188;-73
2021/08/25 13:39:40;;;;;;;6.57;3.83;;;24.00;59.20;;;;;;6245529;28;20266;-73
2021/08/25 13:42:43;;;;;;;6.10;3.77;;;23.40;62.70;;;;;;6245852;28;20195;-74
2021/08/25 13:45:45;;;;;;;5.63;3.93;;;24.00;61.30;;;;;;6244676;28;20310;-74
2021/08/25 13:48:47;;;;;;;4.50;3.80;;;24.90;58.00;;;;;;6244103;28;20208;-74
2021/08/25 13:51:51;;;;;;;5.83;4.20;;;25.90;56.90;;;;;;6244152;28;20196;-74
2021/08/25 13:54:53;;;;;;;4.83;3.93;;;26.60;54.70;;;;;;6260823;28;20286;-74
2021/08/25 13:57:55;;;;;;;5.43;4.20;;;26.40;54.70;;;;;;6227909;28;20217;-74
2021/08/25 14:00:57;;;;;;;6.37;4.07;;;26.40;53.20;;;;;;6244632;28;20192;-74
2021/08/25 14:04:00;;;;;;;5.43;3.67;;;27.10;53.50;;;;;;6224614;28;20198;-74
2021/08/25 14:07:03;;;;;;;6.57;3.70;;;27.90;51.50;;;;;;6246267;28;20359;-74
2021/08/25 14:10:06;;;;;;;6.03;3.88;;;28.30;50.10;;;;;;6249974;28;20212;-73
2021/08/25 14:13:09;;;;;;;5.80;4.00;;;28.70;49.70;;;;;;6249087;28;20271;-75
2021/08/25 14:16:11;;;;;;;4.30;3.47;;;29.00;49.40;;;;;;6248733;28;20199;-75
2021/08/25 14:19:13;;;;;;;5.50;3.50;;;29.00;48.90;;;;;;6248848;28;20211;-73
2021/08/25 14:22:16;;;;;;;6.75;3.70;;;28.80;47.60;;;;;;6248779;28;20279;-73
2021/08/25 14:25:18;;;;;;;6.15;3.65;;;29.10;47.20;;;;;;6248474;28;20220;-74
2021/08/25 14:28:25;;;;;;;4.32;3.67;;;29.50;48.00;;;;;;6248261;28;20299;-74
2021/08/25 14:31:27;;;;;;;7.68;4.05;;;29.90;47.30;;;;;;6249206;28;20257;-73
2021/08/25 14:34:30;;;;;;;5.55;4.10;;;29.90;46.20;;;;;;6248307;28;20680;-74
2021/08/25 14:37:35;;;;;;;5.97;4.20;;;30.20;46.70;;;;;;6249626;28;20180;-74
2021/08/25 14:40:37;;;;;;;10.07;4.55;;;30.40;45.30;;;;;;6248198;28;20734;-74
2021/08/25 14:43:39;;;;;;;5.13;3.83;;;30.20;44.60;;;;;;6249610;28;20187;-74
2021/08/25 14:46:42;;;;;;;7.88;3.90;;;30.30;44.60;;;;;;6249101;28;20196;-73
2021/08/25 14:49:44;;;;;;;4.55;3.55;;;30.30;45.00;;;;;;6264546;28;20722;-74
2021/08/25 14:52:46;;;;;;;6.20;4.22;;;30.10;45.30;;;;;;6231614;28;20250;-75
2021/08/25 14:55:49;;;;;;;5.25;3.97;;;29.90;45.00;;;;;;6247186;28;20608;-73
2021/08/25 14:58:51;;;;;;;4.80;3.65;;;30.10;44.50;;;;;;6263938;28;20675;-74
2021/08/25 15:01:53;;;;;;;4.47;3.30;;;30.70;44.40;;;;;;6247237;28;20222;-73
2021/08/25 15:04:56;;;;;;;5.05;3.55;;;31.20;43.50;;;;;;6247297;28;20200;-74
2021/08/25 15:07:59;;;;;;;7.03;3.72;;;31.30;44.00;;;;;;6246885;28;20214;-75
2021/08/25 15:11:03;;;;;;;4.35;3.35;;;31.30;42.80;;;;;;6247858;28;20192;-74
2021/08/25 15:14:06;;;;;;;5.20;3.47;;;31.50;44.80;;;;;;6248283;28;20227;-74
2021/08/25 15:17:08;;;;;;;3.70;3.05;;;31.50;43.30;;;;;;6246413;28;20638;-74
2021/08/25 15:20:14;;;;;;;3.97;3.30;;;31.80;43.60;;;;;;6246079;28;20223;-74
2021/08/25 15:23:16;;;;;;;4.07;3.22;;;32.30;42.80;;;;;;6248140;28;20200;-74
2021/08/25 15:26:20;;;;;;;4.18;3.20;;;32.40;41.30;;;;;;6247272;28;20192;-73
2021/08/25 15:29:23;;;;;;;4.57;3.60;;;32.30;42.20;;;;;;6248585;28;20207;-75
2021/08/25 15:32:26;;;;;;;5.88;4.18;;;31.80;41.80;;;;;;6247034;28;20659;-73
2021/08/25 15:35:28;;;;;;;5.22;3.60;;;31.60;42.00;;;;;;6241834;28;20203;-74
2021/08/25 15:38:31;;;;;;;4.45;3.45;;;31.40;42.80;;;;;;6241911;28;20334;-74
2021/08/25 15:41:33;;;;;;;6.68;3.38;;;30.60;43.40;;;;;;6263634;28;20199;-73
2021/08/25 15:44:36;;;;;;;3.60;3.20;;;29.10;44.90;;;;;;6222591;28;20323;-73
2021/08/25 15:47:38;;;;;;;4.93;3.47;;;27.30;47.10;;;;;;6231567;28;20188;-74
2021/08/25 15:50:40;;;;;;;4.23;3.20;;;25.70;49.80;;;;;;6248089;28;20289;-73
2021/08/25 15:53:43;;;;;;;4.33;3.43;;;24.40;51.80;;;;;;6247881;28;20211;-74